createdAt,value
2023-06-13T00:00:17.102Z,99943.34
2023-06-13T00:02:47.629Z,99946.59
2023-06-13T00:05:22.629Z,99943.19
2023-06-13T00:07:55.370Z,99938.34
2023-06-13T00:10:25.424Z,99937.59
2023-06-13T00:12:55.461Z,99936.19
2023-06-13T00:15:27.456Z,99937.69
2023-06-13T00:17:58.462Z,99938.84
2023-06-13T00:20:30.936Z,99941.94
2023-06-13T00:23:05.318Z,99939.22
2023-06-13T00:25:35.299Z,99938.84
2023-06-13T00:28:05.727Z,99945.59
2023-06-13T00:30:35.726Z,99942.44
2023-06-13T00:33:06.043Z,99949.34
2023-06-13T00:35:36.417Z,99937.19
2023-06-13T00:38:09.973Z,99946.09
2023-06-13T00:40:40.107Z,99937.59
2023-06-13T00:43:13.418Z,99931.13
2023-06-13T00:48:14.007Z,99930.66
2023-06-13T00:50:45.051Z,99927.88
2023-06-13T00:53:20.871Z,99923.25
2023-06-13T00:55:53.258Z,99938.06
2023-06-13T00:58:24.236Z,99932.91
2023-06-13T01:00:56.605Z,99922.31
2023-06-13T01:03:26.631Z,99920.41
2023-06-13T01:05:56.657Z,99926.03
2023-06-13T01:08:32.054Z,99924.78
2023-06-13T01:11:11.229Z,99931.13
2023-06-13T01:13:49.892Z,99920.66
2023-06-13T01:16:29.880Z,99919.38
2023-06-13T01:19:04.456Z,99920.53
2023-06-13T01:21:38.379Z,99920.69
2023-06-13T01:24:22.528Z,99920.59
2023-06-13T01:26:58.245Z,99922.88
2023-06-13T01:29:28.751Z,99919.91
2023-06-13T01:32:00.931Z,99927.31
2023-06-13T01:34:31.736Z,99923.22
2023-06-13T01:37:02.206Z,99922.06
2023-06-13T01:39:32.784Z,99913.69
2023-06-13T01:42:08.215Z,99916.19
2023-06-13T01:44:38.971Z,99918.88
2023-06-13T01:47:22.631Z,99917.66
2023-06-13T01:50:06.142Z,99913.63
2023-06-13T01:52:45.287Z,99911.84
2023-06-13T01:55:20.528Z,99907.53
2023-06-13T01:58:01.442Z,99903.88
2023-06-13T02:00:32.405Z,99905.66
2023-06-13T02:03:05.246Z,99902.19
2023-06-13T02:05:35.381Z,99903.63
2023-06-13T02:08:05.456Z,99905.91
2023-06-13T02:10:35.764Z,99911.16
2023-06-13T02:13:09.294Z,99904.38
2023-06-13T02:15:39.268Z,99913.28
2023-06-13T02:18:10.463Z,99913.28
2023-06-13T02:20:42.027Z,99913.66
2023-06-13T02:23:13.928Z,99911.78
2023-06-13T02:25:44.749Z,99910.09
2023-06-13T02:28:17.423Z,99907.13
2023-06-13T02:30:51.517Z,99904.97
2023-06-13T02:33:21.924Z,99910.81
2023-06-13T02:35:51.956Z,99906.06
2023-06-13T02:38:22.675Z,99897.25
2023-06-13T02:40:52.932Z,99911.19
2023-06-13T02:43:26.270Z,99899.16
2023-06-13T02:45:56.549Z,99899.84
2023-06-13T02:48:27.514Z,99907.13
2023-06-13T02:50:58.617Z,99910.47
2023-06-13T02:53:28.621Z,99908.50
2023-06-13T02:55:58.684Z,99908.16
2023-06-13T02:58:31.215Z,99909.81
2023-06-13T03:01:01.246Z,99901.50
2023-06-13T03:03:31.433Z,99915.66
2023-06-13T03:06:03.705Z,99909.78
2023-06-13T03:08:39.732Z,99915.50
2023-06-13T03:11:13.740Z,99912.41
2023-06-13T03:13:47.822Z,99914.88
2023-06-13T03:16:19.216Z,99910.97
2023-06-13T03:18:51.553Z,99913.69
2023-06-13T03:21:21.658Z,99918.69
2023-06-13T03:23:51.958Z,99924.63
2023-06-13T03:26:22.459Z,99930.66
2023-06-13T03:28:55.345Z,99936.97
2023-06-13T03:31:25.531Z,99930.56
2023-06-13T03:33:56.730Z,99930.16
2023-06-13T03:36:28.157Z,99940.28
2023-06-13T03:39:00.870Z,99942.78
2023-06-13T03:41:32.163Z,99947.59
2023-06-13T03:44:04.762Z,99943.00
2023-06-13T03:46:34.828Z,99953.06
2023-06-13T03:49:04.934Z,99950.78
2023-06-13T03:51:34.997Z,99957.47
2023-06-13T03:54:07.279Z,99964.31
2023-06-13T03:56:37.257Z,99963.03
2023-06-13T03:59:09.861Z,99966.22
2023-06-13T04:01:42.412Z,99970.25
2023-06-13T04:04:12.726Z,99973.28
2023-06-13T04:06:48.664Z,99977.56
2023-06-13T04:09:21.108Z,99976.00
2023-06-13T04:11:51.165Z,99978.13
2023-06-13T04:14:23.702Z,99977.88
2023-06-13T04:16:54.057Z,99975.06
2023-06-13T04:19:24.826Z,99986.84
2023-06-13T04:21:55.691Z,99983.88
2023-06-13T04:24:27.812Z,99986.91
2023-06-13T04:26:57.854Z,99991.97
2023-06-13T04:29:31.223Z,99991.34
2023-06-13T04:32:03.968Z,99989.06
2023-06-13T04:34:34.753Z,99990.28
2023-06-13T04:37:05.081Z,100000.09
2023-06-13T04:39:38.368Z,99999.22
2023-06-13T04:42:15.648Z,100011.16
2023-06-13T04:44:49.402Z,100000.00
2023-06-13T04:47:19.357Z,100008.38
2023-06-13T04:49:49.681Z,100011.03
2023-06-13T04:52:21.691Z,100013.53
2023-06-13T04:54:53.372Z,100009.47
2023-06-13T04:57:23.313Z,100014.75
2023-06-13T04:59:55.891Z,100015.84
2023-06-13T05:02:26.778Z,100007.44
2023-06-13T05:04:57.024Z,100013.13
2023-06-13T05:07:29.897Z,100010.69
2023-06-13T05:09:59.984Z,100013.75
2023-06-13T05:12:30.572Z,100020.00
2023-06-13T05:15:03.520Z,100013.09
2023-06-13T05:17:35.026Z,100012.19
2023-06-13T05:20:05.475Z,100011.28
2023-06-13T05:22:35.962Z,100014.50
2023-06-13T05:25:10.146Z,100014.94
2023-06-13T05:27:40.138Z,100019.66
2023-06-13T05:30:13.831Z,100031.09
2023-06-13T05:32:44.080Z,100025.84
2023-06-13T05:35:14.261Z,100032.28
2023-06-13T05:37:45.149Z,100030.34
2023-06-13T05:40:18.447Z,100040.69
2023-06-13T05:42:48.643Z,100034.59
2023-06-13T05:45:21.306Z,100032.00
2023-06-13T05:47:51.725Z,100038.19
2023-06-13T05:50:22.150Z,100032.28
2023-06-13T05:52:52.201Z,100035.47
2023-06-13T05:55:22.405Z,100029.03
2023-06-13T05:57:52.570Z,100031.41
2023-06-13T06:00:25.568Z,100031.53
2023-06-13T06:02:56.062Z,100024.94
2023-06-13T06:05:26.640Z,100015.09
2023-06-13T06:07:56.709Z,100011.91
2023-06-13T06:10:26.845Z,100019.31
2023-06-13T06:12:56.881Z,100004.28
2023-06-13T06:15:29.582Z,100009.50
2023-06-13T06:17:59.814Z,100011.06
2023-06-13T06:20:30.265Z,100015.47
2023-06-13T06:23:00.318Z,100015.72
2023-06-13T06:25:30.379Z,100026.31
2023-06-13T06:28:02.623Z,100022.63
2023-06-13T06:30:36.810Z,100025.25
2023-06-13T06:33:07.090Z,100028.34
2023-06-13T06:35:37.110Z,100033.47
2023-06-13T06:38:07.132Z,100034.28
2023-06-13T06:40:37.086Z,100045.50
2023-06-13T06:43:07.104Z,100029.91
2023-06-13T06:45:41.672Z,100027.91
2023-06-13T06:48:11.928Z,100022.41
2023-06-13T06:50:41.932Z,100022.88
2023-06-13T06:53:11.993Z,100013.78
2023-06-13T06:55:42.041Z,100021.44
2023-06-13T06:58:12.320Z,100016.69
2023-06-13T07:00:45.015Z,100013.44
2023-06-13T07:03:15.315Z,100017.66
2023-06-13T07:05:45.430Z,100018.09
2023-06-13T07:08:15.463Z,100015.97
2023-06-13T07:10:45.546Z,100024.31
2023-06-13T07:13:15.596Z,100019.28
2023-06-13T07:15:48.264Z,100016.44
2023-06-13T07:18:18.596Z,100022.63
2023-06-13T07:20:48.828Z,100017.41
2023-06-13T07:23:18.881Z,100022.72
2023-06-13T07:25:48.972Z,100016.28
2023-06-13T07:28:18.985Z,100012.44
2023-06-13T07:30:51.727Z,100013.63
2023-06-13T07:33:22.054Z,100020.28
2023-06-13T07:35:54.183Z,100018.38
2023-06-13T07:38:24.391Z,100023.72
2023-06-13T07:40:54.814Z,100018.91
2023-06-13T07:43:24.900Z,100019.28
2023-06-13T07:45:57.593Z,100018.03
2023-06-13T07:48:28.666Z,100019.22
2023-06-13T07:50:58.795Z,100009.50
2023-06-13T07:53:29.314Z,100013.72
2023-06-13T07:55:59.417Z,100002.09
2023-06-13T07:58:29.496Z,100002.78
2023-06-13T08:01:02.184Z,100007.28
2023-06-13T08:03:32.474Z,100003.69
2023-06-13T08:06:02.610Z,99997.34
2023-06-13T08:08:33.357Z,100005.69
2023-06-13T08:11:03.371Z,99997.44
2023-06-13T08:13:33.585Z,99996.34
2023-06-13T08:16:07.395Z,100000.28
2023-06-13T08:18:38.429Z,99997.38
2023-06-13T08:21:08.467Z,99996.31
2023-06-13T08:23:38.541Z,99992.38
2023-06-13T08:26:08.731Z,99992.78
2023-06-13T08:28:38.803Z,99992.69
2023-06-13T08:31:39.460Z,99991.44
2023-06-13T08:34:09.773Z,99996.38
2023-06-13T08:36:41.237Z,99990.94
2023-06-13T08:39:11.386Z,99999.78
2023-06-13T08:41:42.825Z,99994.56
2023-06-13T08:44:13.539Z,99992.94
2023-06-13T08:46:46.251Z,99995.28
2023-06-13T08:49:16.838Z,99991.44
2023-06-13T08:51:52.612Z,99985.16
2023-06-13T08:54:24.745Z,99990.56
2023-06-13T08:56:57.933Z,99984.69
2023-06-13T08:59:31.579Z,99993.84
2023-06-13T09:02:07.092Z,99986.50
2023-06-13T09:04:40.504Z,99980.22
2023-06-13T09:07:11.613Z,99975.03
2023-06-13T09:09:43.012Z,99977.31
2023-06-13T09:12:16.823Z,99962.16
2023-06-13T09:14:48.122Z,99967.69
2023-06-13T09:17:21.150Z,99977.47
2023-06-13T09:19:51.880Z,99974.84
2023-06-13T09:22:22.929Z,99972.97
2023-06-13T09:24:54.339Z,99970.13
2023-06-13T09:27:25.577Z,99969.69
2023-06-13T09:29:55.622Z,99966.53
2023-06-13T09:32:28.565Z,99974.72
2023-06-13T09:34:59.006Z,99961.13
2023-06-13T09:37:29.227Z,99962.13
2023-06-13T09:43:03.963Z,99966.50
2023-06-13T09:45:36.024Z,99957.94
2023-06-13T09:48:09.647Z,99954.66
2023-06-13T09:50:41.722Z,99957.34
2023-06-13T09:53:12.091Z,99950.25
2023-06-13T09:55:42.389Z,99948.06
2023-06-13T09:58:30.716Z,99948.97
2023-06-13T10:01:04.726Z,99943.59
2023-06-13T10:03:37.568Z,99932.81
2023-06-13T10:06:07.905Z,99938.41
2023-06-13T10:08:38.044Z,99941.31
2023-06-13T10:11:12.728Z,99937.41
2023-06-13T10:13:50.641Z,99936.06
2023-06-13T10:16:23.835Z,99935.56
2023-06-13T10:18:59.559Z,99927.00
2023-06-13T10:21:40.363Z,99933.13
2023-06-13T10:24:19.475Z,99930.34
2023-06-13T10:26:50.609Z,99925.22
2023-06-13T10:29:40.789Z,99931.56
2023-06-13T10:32:33.835Z,99922.22
2023-06-13T10:35:31.925Z,99927.19
2023-06-13T10:38:27.955Z,99910.88
2023-06-13T10:41:21.063Z,99922.47
2023-06-13T10:43:57.429Z,99923.88
2023-06-13T10:46:28.245Z,99928.28
2023-06-13T10:48:58.290Z,99921.09
2023-06-13T10:51:34.614Z,99922.50
2023-06-13T10:54:12.467Z,99926.94
2023-06-13T10:56:45.268Z,99905.09
2023-06-13T10:59:18.246Z,99911.41
2023-06-13T11:01:48.768Z,99908.81
2023-06-13T11:04:21.231Z,99912.69
2023-06-13T11:06:55.871Z,99911.06
2023-06-13T11:09:28.082Z,99904.38
2023-06-13T11:12:00.038Z,99915.00
2023-06-13T11:14:32.380Z,99909.25
2023-06-13T11:17:02.723Z,99900.56
2023-06-13T11:19:36.263Z,99900.63
2023-06-13T11:22:17.546Z,99908.06
2023-06-13T11:24:47.646Z,99903.72
2023-06-13T11:27:18.354Z,99908.00
2023-06-13T11:29:48.584Z,99893.47
2023-06-13T11:32:20.174Z,99894.03
2023-06-13T11:34:56.270Z,99876.56
2023-06-13T11:37:35.296Z,99882.13
2023-06-13T11:40:19.013Z,99886.31
2023-06-13T11:42:49.935Z,99879.22
2023-06-13T11:45:20.652Z,99879.66
2023-06-13T11:47:51.396Z,99875.44
2023-06-13T11:50:27.161Z,99872.72
2023-06-13T11:53:09.461Z,99867.16
2023-06-13T11:55:41.004Z,99871.97
2023-06-13T11:58:11.029Z,99866.09
2023-06-13T12:00:55.001Z,99864.53
2023-06-13T12:03:26.911Z,99859.00
2023-06-13T12:05:58.933Z,99867.03
2023-06-13T12:08:31.725Z,99857.22
2023-06-13T12:11:04.474Z,99857.94
2023-06-13T12:13:39.746Z,99853.66
2023-06-13T12:16:10.297Z,99843.31
2023-06-13T12:18:40.342Z,99853.38
2023-06-13T12:21:10.906Z,99854.91
2023-06-13T12:23:43.788Z,99838.97
2023-06-13T12:26:14.322Z,99846.78
2023-06-13T12:28:45.921Z,99845.16
2023-06-13T12:31:15.980Z,99840.28
2023-06-13T12:33:46.126Z,99828.53
2023-06-13T12:36:18.814Z,99837.75
2023-06-13T12:38:52.456Z,99829.41
2023-06-13T12:41:27.186Z,99824.50
2023-06-13T12:43:57.238Z,99832.50
2023-06-13T12:46:27.354Z,99834.31
2023-06-13T12:48:59.107Z,99831.88
2023-06-13T12:51:32.695Z,99829.69
2023-06-13T12:54:14.850Z,99810.75
2023-06-13T12:56:55.827Z,99816.78
2023-06-13T12:59:32.996Z,99817.31
2023-06-13T13:02:03.850Z,99814.03
2023-06-13T13:04:35.778Z,99800.72
2023-06-13T13:07:06.865Z,99800.22
2023-06-13T13:09:41.571Z,99804.06
2023-06-13T13:12:15.351Z,99789.50
2023-06-13T13:14:46.020Z,99791.47
2023-06-13T13:17:16.164Z,99797.97
2023-06-13T13:19:47.110Z,99794.47
2023-06-13T13:22:17.419Z,99795.69
2023-06-13T13:24:50.192Z,99776.94
2023-06-13T13:27:20.798Z,99776.00
2023-06-13T13:29:50.947Z,99770.25
2023-06-13T13:32:20.901Z,99765.00
2023-06-13T13:34:51.129Z,99760.56
2023-06-13T13:37:21.178Z,99770.97
2023-06-13T13:39:53.836Z,99775.28
2023-06-13T13:42:26.546Z,99768.28
2023-06-13T13:44:57.389Z,99765.81
2023-06-13T13:47:27.910Z,99764.63
2023-06-13T13:49:58.660Z,99749.53
2023-06-13T13:52:29.448Z,99765.31
2023-06-13T13:55:02.104Z,99759.09
2023-06-13T13:57:32.098Z,99761.50
2023-06-13T14:00:03.754Z,99765.06
2023-06-13T14:02:35.571Z,99760.56
2023-06-13T14:05:05.719Z,99749.78
2023-06-13T14:07:36.427Z,99750.25
2023-06-13T14:10:10.137Z,99744.25
2023-06-13T14:12:40.120Z,99735.19
2023-06-13T14:15:11.023Z,99744.56
2023-06-13T14:17:41.099Z,99747.25
2023-06-13T14:20:14.066Z,99731.47
2023-06-13T14:22:44.458Z,99723.34
2023-06-13T14:25:17.128Z,99718.66
2023-06-13T14:27:47.235Z,99727.53
2023-06-13T14:30:18.631Z,99721.78
2023-06-13T14:32:48.968Z,99722.59
2023-06-13T14:35:19.982Z,99720.84
2023-06-13T14:37:50.351Z,99714.41
2023-06-13T14:40:23.091Z,99710.88
2023-06-13T14:42:53.135Z,99703.69
2023-06-13T14:45:23.287Z,99711.19
2023-06-13T14:47:55.408Z,99706.97
2023-06-13T14:50:25.963Z,99707.13
2023-06-13T14:52:56.216Z,99690.19
2023-06-13T14:55:28.972Z,99690.78
2023-06-13T14:57:59.189Z,99685.63
2023-06-13T15:00:29.253Z,99695.41
2023-06-13T15:03:00.294Z,99685.63
2023-06-13T15:05:30.365Z,99674.47
2023-06-13T15:08:01.215Z,99676.97
2023-06-13T15:10:34.292Z,99678.22
2023-06-13T15:13:04.300Z,99679.47
2023-06-13T15:15:34.403Z,99669.97
2023-06-13T15:18:04.620Z,99666.25
2023-06-13T15:20:35.301Z,99667.19
2023-06-13T15:23:05.516Z,99668.63
2023-06-13T15:25:38.256Z,99665.19
2023-06-13T15:28:08.561Z,99655.19
2023-06-13T15:30:38.536Z,99663.69
2023-06-13T15:33:08.621Z,99666.16
2023-06-13T15:35:38.894Z,99669.47
2023-06-13T15:38:10.333Z,99673.09
2023-06-13T15:40:42.932Z,99668.56
2023-06-13T15:43:13.026Z,99654.81
2023-06-13T15:45:43.561Z,99670.56
2023-06-13T15:48:13.620Z,99668.34
2023-06-13T15:50:44.676Z,99669.25
2023-06-13T15:53:16.490Z,99670.09
2023-06-13T15:55:49.141Z,99670.59
2023-06-13T15:58:19.328Z,99670.34
2023-06-13T16:00:49.428Z,99668.34
2023-06-13T16:03:19.592Z,99664.03
2023-06-13T16:05:49.659Z,99667.00
2023-06-13T16:08:19.744Z,99676.13
2023-06-13T16:10:52.361Z,99673.28
2023-06-13T16:13:25.271Z,99667.59
2023-06-13T16:15:55.353Z,99666.94
2023-06-13T16:18:25.379Z,99661.78
2023-06-13T16:20:55.558Z,99658.81
2023-06-13T16:23:25.628Z,99663.47
2023-06-13T16:25:58.321Z,99678.84
2023-06-13T16:28:28.352Z,99665.06
2023-06-13T16:30:58.427Z,99658.19
2023-06-13T16:33:28.694Z,99664.59
2023-06-13T16:35:58.793Z,99658.31
2023-06-13T16:38:30.216Z,99663.22
2023-06-13T16:41:06.527Z,99658.75
2023-06-13T16:43:38.416Z,99674.25
2023-06-13T16:46:08.592Z,99675.72
2023-06-13T16:48:38.853Z,99670.50
2023-06-13T16:51:08.915Z,99662.72
2023-06-13T16:53:39.005Z,99661.81
2023-06-13T16:56:11.926Z,99667.22
2023-06-13T16:58:42.040Z,99666.72
2023-06-13T17:01:12.205Z,99671.00
2023-06-13T17:03:42.366Z,99668.44
2023-06-13T17:06:12.514Z,99664.66
2023-06-13T17:08:42.545Z,99673.50
2023-06-13T17:11:15.195Z,99674.84
2023-06-13T17:13:46.785Z,99665.94
2023-06-13T17:16:17.648Z,99660.28
2023-06-13T17:18:47.820Z,99679.50
2023-06-13T17:21:17.995Z,99669.78
2023-06-13T17:23:48.097Z,99679.88
2023-06-13T17:26:20.868Z,99683.19
2023-06-13T17:28:51.247Z,99672.97
2023-06-13T17:31:21.384Z,99677.09
2023-06-13T17:33:51.710Z,99685.44
2023-06-13T17:36:22.505Z,99686.16
2023-06-13T17:38:52.680Z,99687.31
2023-06-13T17:41:26.340Z,99676.31
2023-06-13T17:43:56.368Z,99687.00
2023-06-13T17:46:26.974Z,99688.44
2023-06-13T17:48:57.124Z,99693.53
2023-06-13T17:51:27.262Z,99689.25
2023-06-13T17:53:57.703Z,99689.44
2023-06-13T17:56:30.802Z,99695.88
2023-06-13T17:59:00.920Z,99697.66
2023-06-13T18:01:31.142Z,99693.75
2023-06-13T18:04:01.298Z,99697.34
2023-06-13T18:06:31.486Z,99696.81
2023-06-13T18:09:01.568Z,99694.13
2023-06-13T18:11:35.211Z,99707.19
2023-06-13T18:14:09.176Z,99710.03
2023-06-13T18:16:39.820Z,99713.25
2023-06-13T18:19:10.645Z,99710.91
2023-06-13T18:21:40.704Z,99711.69
2023-06-13T18:24:11.006Z,99711.75
2023-06-13T18:26:43.862Z,99716.13
2023-06-13T18:29:13.912Z,99713.06
2023-06-13T18:31:44.047Z,99716.09
2023-06-13T18:34:14.086Z,99721.19
2023-06-13T18:36:44.136Z,99713.91
2023-06-13T18:39:14.147Z,99718.53
2023-06-13T18:41:47.270Z,99715.56
2023-06-13T18:44:17.397Z,99718.41
2023-06-13T18:46:47.427Z,99715.69
2023-06-13T18:49:17.630Z,99715.44
2023-06-13T18:51:51.650Z,99718.63
2023-06-13T18:54:21.762Z,99721.75
2023-06-13T18:56:54.414Z,99727.44
2023-06-13T18:59:24.468Z,99733.31
2023-06-13T19:01:55.648Z,99730.44
2023-06-13T19:04:27.909Z,99742.13
2023-06-13T19:06:58.008Z,99738.03
2023-06-13T19:09:28.075Z,99745.50
2023-06-13T19:12:00.892Z,99750.81
2023-06-13T19:14:31.200Z,99753.34
2023-06-13T19:17:01.394Z,99759.50
2023-06-13T19:19:31.512Z,99762.91
2023-06-13T19:22:02.668Z,99760.22
2023-06-13T19:24:33.220Z,99757.47
2023-06-13T19:27:06.159Z,99759.44
2023-06-13T19:29:37.716Z,99761.34
2023-06-13T19:32:09.006Z,99765.53
2023-06-13T19:34:39.020Z,99756.66
2023-06-13T19:37:09.156Z,99763.56
2023-06-13T19:39:39.301Z,99765.81
2023-06-13T19:42:13.006Z,99769.16
2023-06-13T19:44:43.569Z,99775.00
2023-06-13T19:47:14.107Z,99773.84
2023-06-13T19:49:45.556Z,99780.19
2023-06-13T19:52:15.978Z,99776.06
2023-06-13T19:54:47.825Z,99776.63
2023-06-13T19:57:20.634Z,99784.63
2023-06-13T19:59:51.976Z,99786.81
2023-06-13T20:02:22.715Z,99781.84
2023-06-13T20:04:53.146Z,99789.59
2023-06-13T20:07:23.346Z,99793.72
2023-06-13T20:09:53.569Z,99798.38
2023-06-13T20:12:26.227Z,99801.44
2023-06-13T20:14:56.291Z,99803.63
2023-06-13T20:17:28.050Z,99804.44
2023-06-13T20:19:58.351Z,99803.78
2023-06-13T20:22:28.375Z,99815.38
2023-06-13T20:24:58.427Z,99801.81
2023-06-13T20:27:31.110Z,99808.16
2023-06-13T20:30:01.783Z,99807.88
2023-06-13T20:32:31.944Z,99803.72
2023-06-13T20:35:02.037Z,99808.66
2023-06-13T20:37:32.377Z,99811.91
2023-06-13T20:40:05.843Z,99801.41
2023-06-13T20:42:41.915Z,99805.81
2023-06-13T20:45:16.145Z,99816.78
2023-06-13T20:47:48.406Z,99816.50
2023-06-13T20:50:19.156Z,99825.63
2023-06-13T20:52:49.278Z,99827.28
2023-06-13T20:55:21.428Z,99815.00
2023-06-13T20:57:54.230Z,99818.28
2023-06-13T21:00:27.414Z,99823.97
2023-06-13T21:02:58.714Z,99822.59
2023-06-13T21:05:30.826Z,99828.84
2023-06-13T21:08:01.106Z,99827.47
2023-06-13T21:10:32.036Z,99830.22
2023-06-13T21:13:04.698Z,99828.72
2023-06-13T21:15:34.714Z,99832.94
2023-06-13T21:18:06.167Z,99833.91
2023-06-13T21:20:36.501Z,99828.41
2023-06-13T21:23:06.745Z,99827.03
2023-06-13T21:25:36.871Z,99826.09
2023-06-13T21:28:09.686Z,99826.44
2023-06-13T21:30:39.947Z,99821.91
2023-06-13T21:33:10.409Z,99827.44
2023-06-13T21:35:40.646Z,99825.19
2023-06-13T21:38:11.320Z,99823.19
2023-06-13T21:40:41.372Z,99826.31
2023-06-13T21:43:13.986Z,99820.84
2023-06-13T21:45:44.131Z,99827.41
2023-06-13T21:48:14.140Z,99831.53
2023-06-13T21:50:44.213Z,99827.03
2023-06-13T21:53:14.285Z,99833.66
2023-06-13T21:55:44.687Z,99821.28
2023-06-13T21:58:17.464Z,99830.03
2023-06-13T22:00:48.126Z,99830.28
2023-06-13T22:03:18.337Z,99822.53
2023-06-13T22:05:49.282Z,99825.94
2023-06-13T22:08:19.994Z,99826.09
2023-06-13T22:10:50.069Z,99828.81
2023-06-13T22:13:22.738Z,99828.81
2023-06-13T22:15:54.057Z,99827.88
2023-06-13T22:18:24.782Z,99830.28
2023-06-13T22:20:54.977Z,99829.13
2023-06-13T22:23:25.018Z,99832.22
2023-06-13T22:25:54.983Z,99824.66
2023-06-13T22:28:39.318Z,99838.97
2023-06-13T22:31:10.175Z,99832.81
2023-06-13T22:33:40.193Z,99838.13
2023-06-13T22:36:10.311Z,99841.13
2023-06-13T22:38:40.364Z,99843.38
2023-06-13T22:41:10.694Z,99832.88
2023-06-13T22:43:43.338Z,99835.66
2023-06-13T22:46:13.391Z,99839.66
2023-06-13T22:48:43.467Z,99836.13
2023-06-13T22:51:13.509Z,99841.03
2023-06-13T22:53:43.568Z,99838.03
2023-06-13T22:56:13.765Z,99840.53
2023-06-13T22:58:49.717Z,99835.06
2023-06-13T23:01:21.678Z,99833.38
2023-06-13T23:03:51.937Z,99838.88
2023-06-13T23:06:22.059Z,99852.66
2023-06-13T23:08:52.093Z,99851.53
2023-06-13T23:11:22.568Z,99852.63
2023-06-13T23:13:55.430Z,99858.97
2023-06-13T23:16:25.644Z,99847.66
2023-06-13T23:18:56.128Z,99843.16
2023-06-13T23:21:26.319Z,99848.50
2023-06-13T23:23:56.497Z,99841.16
2023-06-13T23:26:26.780Z,99852.31
2023-06-13T23:28:59.832Z,99847.25
2023-06-13T23:31:30.083Z,99841.16
2023-06-13T23:34:00.214Z,99838.50
2023-06-13T23:36:30.781Z,99846.09
2023-06-13T23:39:01.493Z,99844.78
2023-06-13T23:41:33.962Z,99848.66
2023-06-13T23:44:25.873Z,99839.63
2023-06-13T23:46:55.892Z,99837.09
2023-06-13T23:49:26.002Z,99835.47
2023-06-13T23:51:56.029Z,99840.97
2023-06-13T23:54:26.101Z,99842.84
2023-06-13T23:56:56.252Z,99841.97
2023-06-13T23:59:28.848Z,99842.94
